Time;durP1;ratioP1;P1;durP2;ratioP2;P2;SDS_P1;SDS_P2;PMS_P1;PMS_P2;Temp;Humidity;BMP_temperature;BMP_pressure;BME280_temperature;BME280_humidity;BME280_pressure;Samples;Min_cycle;Max_cycle;Signal;HPM_P1;HPM_P2
2021/08/25 00:01:13;;;;;;;5.35;2.78;;;12.30;83.90;;;;;;5025818;28;20465;-78
2021/08/25 00:03:38;;;;;;;2.55;2.25;;;12.30;83.30;;;;;;5028246;28;20484;-77
2021/08/25 00:06:04;;;;;;;3.97;2.58;;;12.30;83.00;;;;;;5007818;28;20041;-77
2021/08/25 00:08:29;;;;;;;3.92;2.72;;;12.40;83.00;;;;;;5028984;28;20156;-78
2021/08/25 00:10:55;;;;;;;6.07;3.17;;;12.30;82.80;;;;;;4991599;28;20076;-76
2021/08/25 00:13:20;;;;;;;6.57;3.42;;;12.20;83.70;;;;;;5029187;28;20145;-77
2021/08/25 00:15:46;;;;;;;6.72;3.22;;;12.00;86.30;;;;;;5032770;28;20105;-77
2021/08/25 00:18:12;;;;;;;7.35;3.22;;;11.80;87.50;;;;;;5025695;28;20026;-77
2021/08/25 00:20:37;;;;;;;10.18;3.30;;;11.70;86.10;;;;;;5041652;28;20423;-78
2021/08/25 00:23:03;;;;;;;5.90;3.42;;;11.70;87.10;;;;;;5020591;28;20048;-77
2021/08/25 00:25:28;;;;;;;8.30;3.10;;;11.80;86.80;;;;;;5029710;28;20404;-77
2021/08/25 00:27:54;;;;;;;6.35;3.17;;;11.80;87.40;;;;;;5030596;28;20021;-78
2021/08/25 00:30:20;;;;;;;8.73;3.10;;;11.80;86.50;;;;;;4992378;28;20045;-78
2021/08/25 00:32:45;;;;;;;6.75;2.65;;;11.80;87.40;;;;;;5021625;28;20524;-78
2021/08/25 00:35:11;;;;;;;5.78;3.08;;;11.90;84.60;;;;;;5026190;28;20040;-76
2021/08/25 00:37:37;;;;;;;6.60;3.08;;;11.90;83.70;;;;;;5009481;28;20031;-77
2021/08/25 00:40:04;;;;;;;5.55;3.08;;;11.70;86.90;;;;;;5024228;28;20033;-77
2021/08/25 00:42:29;;;;;;;4.22;3.22;;;11.50;90.60;;;;;;5037812;28;20060;-77
2021/08/25 00:44:55;;;;;;;6.53;3.20;;;11.50;88.00;;;;;;5020646;28;20537;-77
2021/08/25 00:47:20;;;;;;;5.88;3.47;;;11.60;88.10;;;;;;5011183;28;20033;-77
2021/08/25 00:49:46;;;;;;;8.57;3.35;;;11.60;88.70;;;;;;5000766;28;20365;-77
2021/08/25 00:52:11;;;;;;;5.20;3.40;;;11.50;87.60;;;;;;5031357;28;20489;-77
2021/08/25 00:54:37;;;;;;;6.45;3.08;;;11.50;87.10;;;;;;5008495;28;20492;-77
2021/08/25 00:57:03;;;;;;;6.60;3.28;;;11.40;88.60;;;;;;5021736;28;20116;-77
2021/08/25 00:59:29;;;;;;;5.32;2.97;;;11.30;90.20;;;;;;4991127;28;20037;-77
2021/08/25 01:02:19;;;;;;;11.23;3.38;;;11.40;89.30;;;;;;5027865;28;20028;-77
2021/08/25 01:04:54;;;;;;;6.03;3.20;;;11.40;87.00;;;;;;5011563;28;20028;-76
2021/08/25 01:07:22;;;;;;;5.30;3.28;;;11.50;86.10;;;;;;5010510;28;20037;-77
2021/08/25 01:09:51;;;;;;;4.03;2.78;;;11.50;87.10;;;;;;4994250;28;20405;-76
2021/08/25 01:12:19;;;;;;;11.68;3.30;;;11.20;90.10;;;;;;5027546;28;20223;-76
2021/08/25 01:14:44;;;;;;;6.30;3.25;;;11.00;91.00;;;;;;5009621;28;20108;-78
2021/08/25 01:17:10;;;;;;;6.85;3.88;;;11.00;93.80;;;;;;5028687;28;20508;-76
2021/08/25 01:19:59;;;;;;;6.53;3.72;;;11.00;94.20;;;;;;5008200;28;20100;-77
2021/08/25 01:22:25;;;;;;;7.75;2.42;;;11.10;90.70;;;;;;5028160;28;20038;-77
2021/08/25 01:24:52;;;;;;;4.22;3.00;;;11.30;88.30;;;;;;5011730;28;20033;-77
2021/08/25 01:27:18;;;;;;;7.45;3.53;;;11.30;89.90;;;;;;5045057;28;20060;-77
2021/08/25 01:29:43;;;;;;;6.95;4.13;;;11.20;90.90;;;;;;5005824;28;20492;-76
2021/08/25 01:32:10;;;;;;;5.57;3.70;;;10.90;90.90;;;;;;5042569;28;20115;-77
2021/08/25 01:34:52;;;;;;;7.05;3.60;;;10.60;91.30;;;;;;5003653;28;20044;-77
2021/08/25 01:37:17;;;;;;;6.35;3.63;;;10.60;92.30;;;;;;5048751;28;20072;-77
2021/08/25 01:39:43;;;;;;;6.70;4.07;;;10.70;92.70;;;;;;5036077;28;20646;-77
2021/08/25 01:42:08;;;;;;;11.60;4.40;;;10.80;95.40;;;;;;5023316;28;20817;-76
2021/08/25 01:44:34;;;;;;;4.80;3.60;;;10.80;94.10;;;;;;5006111;28;20060;-77
2021/08/25 01:46:59;;;;;;;7.40;4.20;;;10.70;94.30;;;;;;5020866;28;20029;-77
2021/08/25 01:49:28;;;;;;;7.45;3.97;;;10.70;95.80;;;;;;5018665;28;20056;-76
2021/08/25 01:51:57;;;;;;;7.28;3.70;;;10.80;93.10;;;;;;5026337;28;20062;-76
2021/08/25 01:54:23;;;;;;;5.50;2.80;;;11.00;91.80;;;;;;5054058;28;20052;-77
2021/08/25 01:56:49;;;;;;;2.90;2.38;;;11.10;90.90;;;;;;5014294;28;20029;-77
2021/08/25 01:59:14;;;;;;;5.03;2.78;;;11.20;90.70;;;;;;5051833;28;20098;-77
2021/08/25 02:01:40;;;;;;;9.10;3.05;;;11.10;90.60;;;;;;5041974;28;20376;-76
2021/08/25 02:04:05;;;;;;;8.10;3.45;;;10.90;92.90;;;;;;5022614;28;20028;-78
2021/08/25 02:06:31;;;;;;;5.90;4.03;;;10.70;92.40;;;;;;5028801;28;20037;-77
2021/08/25 02:08:56;;;;;;;4.75;3.80;;;10.60;92.40;;;;;;5053365;28;20040;-76
2021/08/25 02:11:22;;;;;;;5.85;3.58;;;10.60;93.20;;;;;;5005238;28;20041;-77
2021/08/25 02:13:47;;;;;;;7.90;3.90;;;10.50;94.60;;;;;;5014741;28;20040;-77
2021/08/25 02:16:13;;;;;;;11.85;4.10;;;10.60;94.00;;;;;;5021219;28;20045;-77
2021/08/25 02:18:38;;;;;;;5.72;3.40;;;10.60;92.80;;;;;;5022476;28;20029;-78
2021/08/25 02:21:04;;;;;;;4.15;3.47;;;10.70;92.60;;;;;;5026146;28;20029;-77
2021/08/25 02:23:30;;;;;;;5.28;3.85;;;10.60;94.30;;;;;;5032719;28;20040;-77
2021/08/25 02:25:55;;;;;;;6.05;4.18;;;10.50;94.00;;;;;;5028854;28;20069;-77
2021/08/25 02:28:21;;;;;;;6.25;3.92;;;10.30;95.60;;;;;;5015062;28;20421;-76
2021/08/25 02:30:46;;;;;;;8.57;4.10;;;10.20;96.10;;;;;;5047142;28;20039;-77
2021/08/25 02:33:12;;;;;;;7.93;4.65;;;10.20;96.30;;;;;;5030451;28;20401;-77
2021/08/25 02:35:37;;;;;;;6.40;4.15;;;10.10;96.40;;;;;;5010608;28;20422;-77
2021/08/25 02:38:03;;;;;;;13.73;4.53;;;10.10;96.30;;;;;;5024067;28;20428;-76
2021/08/25 02:40:29;;;;;;;9.18;3.78;;;10.10;97.00;;;;;;5059997;28;20030;-78
2021/08/25 02:42:54;;;;;;;5.88;4.22;;;10.10;96.90;;;;;;5040981;28;20026;-76
2021/08/25 02:45:20;;;;;;;7.18;3.83;;;10.20;96.80;;;;;;5010663;28;20026;-77
2021/08/25 02:47:45;;;;;;;6.95;4.80;;;10.20;96.00;;;;;;4993546;28;20052;-77
2021/08/25 02:50:11;;;;;;;5.28;3.65;;;10.20;94.90;;;;;;5014797;28;20500;-76
2021/08/25 02:52:36;;;;;;;7.07;4.30;;;10.10;96.20;;;;;;5012694;28;20033;-76
2021/08/25 02:55:02;;;;;;;8.73;4.20;;;10.00;95.90;;;;;;5041060;28;20445;-77
2021/08/25 02:57:27;;;;;;;6.85;4.38;;;10.20;94.80;;;;;;5026547;28;20029;-77
2021/08/25 02:59:53;;;;;;;6.80;4.43;;;10.10;95.10;;;;;;5032601;28;20044;-77
2021/08/25 03:02:19;;;;;;;5.63;3.90;;;10.00;95.50;;;;;;5025653;28;20079;-78
2021/08/25 03:04:44;;;;;;;6.25;3.83;;;10.00;96.10;;;;;;5024582;28;20043;-76
2021/08/25 03:07:10;;;;;;;7.70;4.05;;;10.00;95.40;;;;;;5025806;28;20029;-76
2021/08/25 03:09:35;;;;;;;8.55;4.53;;;9.90;96.60;;;;;;5018940;28;20033;-76
2021/08/25 03:12:01;;;;;;;4.45;2.92;;;9.90;96.40;;;;;;5030109;28;20208;-77
2021/08/25 03:14:26;;;;;;;5.85;4.05;;;10.00;93.60;;;;;;5023852;28;20025;-77
2021/08/25 03:16:52;;;;;;;6.72;4.18;;;10.10;93.60;;;;;;4998865;28;20057;-77
2021/08/25 03:19:17;;;;;;;4.85;3.72;;;10.10;94.30;;;;;;5043014;28;20141;-76
2021/08/25 03:21:43;;;;;;;9.55;4.55;;;9.90;95.90;;;;;;5020304;28;20768;-77
2021/08/25 03:24:09;;;;;;;7.40;3.78;;;9.80;97.00;;;;;;5036343;28;20026;-77
2021/08/25 03:26:34;;;;;;;8.20;4.47;;;9.80;96.20;;;;;;5022447;28;20044;-77
2021/08/25 03:29:00;;;;;;;9.13;4.80;;;9.90;95.30;;;;;;5011413;28;20068;-77
2021/08/25 03:31:25;;;;;;;6.03;4.20;;;9.80;96.30;;;;;;5026042;28;20123;-76
2021/08/25 03:33:51;;;;;;;6.95;4.55;;;9.70;96.90;;;;;;5028354;28;20051;-77
2021/08/25 03:36:16;;;;;;;10.57;4.25;;;9.80;95.20;;;;;;5024855;28;20365;-77
2021/08/25 03:38:42;;;;;;;6.03;4.47;;;9.90;93.90;;;;;;5044565;28;20033;-77
2021/08/25 03:41:08;;;;;;;6.57;3.95;;;9.90;95.60;;;;;;5021367;28;20116;-77
2021/08/25 03:43:33;;;;;;;5.57;4.30;;;9.70;96.40;;;;;;5029632;28;20032;-77
2021/08/25 03:45:59;;;;;;;7.13;4.18;;;9.60;97.00;;;;;;5020338;28;20030;-77
2021/08/25 03:48:24;;;;;;;6.68;4.25;;;9.50;97.20;;;;;;5019718;28;20144;-77
2021/08/25 03:50:51;;;;;;;7.20;4.50;;;9.50;97.10;;;;;;5027849;28;20116;-76
2021/08/25 03:53:16;;;;;;;6.43;4.15;;;9.40;97.90;;;;;;5044851;28;20033;-77
2021/08/25 03:55:42;;;;;;;7.80;4.72;;;9.40;97.90;;;;;;5010111;28;20357;-76
2021/08/25 03:58:08;;;;;;;8.98;5.38;;;9.30;98.40;;;;;;5029294;28;20477;-76
2021/08/25 04:00:33;;;;;;;7.28;4.35;;;9.40;98.10;;;;;;5024363;28;20029;-77
2021/08/25 04:02:59;;;;;;;7.00;4.53;;;9.40;98.00;;;;;;5014460;28;20438;-78
2021/08/25 04:05:24;;;;;;;6.60;4.43;;;9.40;97.50;;;;;;5059742;28;20434;-77
2021/08/25 04:07:50;;;;;;;10.00;4.45;;;9.40;97.00;;;;;;5019498;28;20021;-77
2021/08/25 04:10:15;;;;;;;5.32;4.25;;;9.30;97.60;;;;;;5029879;28;20029;-76
2021/08/25 04:12:41;;;;;;;7.55;4.35;;;9.30;97.80;;;;;;5043287;28;20082;-77
2021/08/25 04:15:07;;;;;;;7.97;4.55;;;9.30;98.60;;;;;;5035818;28;20485;-76
2021/08/25 04:17:33;;;;;;;8.57;4.40;;;9.20;98.10;;;;;;5010561;28;20399;-77
2021/08/25 04:19:58;;;;;;;7.65;4.90;;;9.30;98.60;;;;;;5026993;28;20082;-76
2021/08/25 04:22:24;;;;;;;4.97;3.00;;;9.30;98.40;;;;;;5015822;28;20033;-77
2021/08/25 04:24:50;;;;;;;5.70;3.78;;;9.40;95.90;;;;;;5033126;28;20033;-77
2021/08/25 04:27:15;;;;;;;8.07;4.20;;;9.50;94.70;;;;;;5015501;28;20033;-77
2021/08/25 04:29:41;;;;;;;10.95;4.22;;;9.50;96.60;;;;;;5022170;28;20159;-77
2021/08/25 04:32:07;;;;;;;11.70;5.50;;;9.40;97.40;;;;;;5029618;28;20030;-78
2021/08/25 04:34:32;;;;;;;6.47;4.80;;;9.30;96.80;;;;;;5009198;28;20585;-77
2021/08/25 04:36:58;;;;;;;5.90;4.65;;;9.30;97.10;;;;;;5033062;28;20021;-77
2021/08/25 04:39:23;;;;;;;9.80;4.85;;;9.30;97.60;;;;;;5009201;28;20025;-78
2021/08/25 04:41:49;;;;;;;9.13;4.72;;;9.30;96.90;;;;;;5020163;28;20045;-78
2021/08/25 04:44:14;;;;;;;8.80;4.93;;;9.30;97.00;;;;;;5024469;28;20128;-78
2021/08/25 04:46:41;;;;;;;8.57;4.85;;;9.40;96.80;;;;;;5020370;28;20112;-77
2021/08/25 04:49:07;;;;;;;6.25;4.22;;;9.30;97.00;;;;;;5019884;28;20037;-78
2021/08/25 04:51:32;;;;;;;7.82;4.28;;;9.30;95.40;;;;;;5009893;28;20368;-78
2021/08/25 04:53:58;;;;;;;4.88;3.38;;;9.40;95.70;;;;;;5029620;28;20052;-79
2021/08/25 04:56:23;;;;;;;6.47;3.60;;;9.50;94.60;;;;;;5035614;28;20021;-80
2021/08/25 04:58:49;;;;;;;5.20;4.18;;;9.60;94.10;;;;;;5041665;28;20037;-78
2021/08/25 05:01:14;;;;;;;7.10;4.22;;;9.50;94.70;;;;;;5044434;28;20036;-79
2021/08/25 05:03:40;;;;;;;8.27;4.88;;;9.40;96.40;;;;;;5002732;28;20029;-79
2021/08/25 05:06:07;;;;;;;7.00;4.10;;;9.30;97.00;;;;;;5015545;28;20052;-80
2021/08/25 05:08:32;;;;;;;6.90;5.20;;;9.30;96.50;;;;;;5011718;28;20029;-80
2021/08/25 05:10:58;;;;;;;9.70;5.10;;;9.30;97.30;;;;;;5047997;28;20482;-79
2021/08/25 05:13:23;;;;;;;8.68;5.35;;;9.40;96.80;;;;;;5013780;28;20468;-79
2021/08/25 05:15:49;;;;;;;6.70;4.63;;;9.50;96.60;;;;;;5043555;28;20040;-80
2021/08/25 05:18:15;;;;;;;11.55;6.07;;;9.50;96.60;;;;;;5010468;28;20100;-79
2021/08/25 05:20:40;;;;;;;9.73;6.07;;;9.60;96.80;;;;;;4992950;28;20168;-79
2021/08/25 05:23:07;;;;;;;11.73;6.18;;;9.60;97.30;;;;;;4993753;28;20029;-80
2021/08/25 05:25:35;;;;;;;8.90;5.95;;;9.60;98.00;;;;;;5029677;28;20033;-79
2021/08/25 05:28:01;;;;;;;10.30;7.15;;;9.60;98.00;;;;;;5041507;28;20223;-78
2021/08/25 05:30:27;;;;;;;11.88;8.50;;;9.60;97.90;;;;;;5027554;28;20037;-78
2021/08/25 05:32:52;;;;;;;10.00;6.63;;;9.70;96.70;;;;;;4990839;28;20032;-79
2021/08/25 05:35:21;;;;;;;10.15;6.85;;;9.70;96.70;;;;;;5008793;28;20400;-79
2021/08/25 05:37:48;;;;;;;12.38;7.43;;;9.80;96.60;;;;;;5012033;28;20104;-79
2021/08/25 05:40:14;;;;;;;7.40;5.50;;;9.90;97.10;;;;;;5028748;28;20029;-78
2021/08/25 05:42:41;;;;;;;8.95;6.65;;;10.00;94.80;;;;;;5010644;28;20036;-78
2021/08/25 05:45:07;;;;;;;9.20;5.40;;;10.10;94.90;;;;;;5017774;28;20443;-78
2021/08/25 05:47:33;;;;;;;10.95;8.20;;;10.10;94.70;;;;;;5028378;28;20033;-78
2021/08/25 05:49:58;;;;;;;16.48;7.70;;;10.20;94.80;;;;;;4994700;28;20041;-79
2021/08/25 05:52:24;;;;;;;9.73;7.75;;;10.30;94.90;;;;;;5024789;28;20160;-79
2021/08/25 05:54:49;;;;;;;12.80;7.70;;;10.30;95.30;;;;;;5051513;28;20083;-79
2021/08/25 05:57:15;;;;;;;14.55;7.60;;;10.40;95.40;;;;;;4992853;28;20443;-79
2021/08/25 05:59:40;;;;;;;17.50;9.35;;;10.40;95.10;;;;;;5022608;28;20624;-79
2021/08/25 06:02:06;;;;;;;9.05;7.60;;;10.50;94.90;;;;;;5041517;28;20056;-79
2021/08/25 06:04:31;;;;;;;15.05;9.60;;;10.60;94.80;;;;;;5011743;28;20111;-79
2021/08/25 06:06:59;;;;;;;11.77;10.10;;;10.70;95.00;;;;;;5009237;28;20036;-80
2021/08/25 06:09:24;;;;;;;18.27;11.50;;;10.70;94.60;;;;;;4994356;28;20028;-79
2021/08/25 06:11:50;;;;;;;18.17;12.23;;;10.80;94.90;;;;;;5024053;28;20271;-78
2021/08/25 06:14:15;;;;;;;22.02;11.13;;;10.90;95.00;;;;;;5024933;28;20036;-79
2021/08/25 06:16:43;;;;;;;18.70;12.10;;;11.00;94.90;;;;;;5018458;28;20025;-79
2021/08/25 06:19:09;;;;;;;16.52;12.63;;;11.20;95.30;;;;;;5026205;28;20056;-80
2021/08/25 06:21:35;;;;;;;19.45;12.63;;;11.30;95.00;;;;;;5022889;28;20487;-79
2021/08/25 06:24:07;;;;;;;18.30;12.90;;;11.40;95.50;;;;;;5024805;28;20083;-79
2021/08/25 06:26:33;;;;;;;17.63;12.90;;;11.60;95.10;;;;;;5008428;28;20116;-79
2021/08/25 06:29:05;;;;;;;21.13;15.00;;;11.70;95.00;;;;;;5003647;28;20116;-79
2021/08/25 06:31:30;;;;;;;19.05;14.18;;;11.90;95.20;;;;;;5026256;28;20043;-79
2021/08/25 06:33:56;;;;;;;17.25;11.77;;;12.10;95.20;;;;;;4994521;28;20029;-79
2021/08/25 06:36:22;;;;;;;8.75;5.43;;;12.30;93.40;;;;;;5023192;28;20040;-78
2021/08/25 06:38:47;;;;;;;15.63;10.75;;;12.50;93.40;;;;;;4995481;28;20025;-79
2021/08/25 06:41:13;;;;;;;7.38;5.78;;;12.70;96.90;;;;;;5012274;28;20040;-79
2021/08/25 06:43:39;;;;;;;12.80;10.20;;;12.80;93.80;;;;;;5012276;28;20068;-79
2021/08/25 06:46:05;;;;;;;19.48;11.70;;;12.90;94.10;;;;;;5027717;28;20373;-79
2021/08/25 06:48:31;;;;;;;13.05;8.00;;;12.90;94.70;;;;;;4997227;28;20041;-79
2021/08/25 06:50:56;;;;;;;10.30;6.03;;;13.10;94.00;;;;;;4996420;28;20025;-79
2021/08/25 06:53:22;;;;;;;13.73;7.40;;;13.30;93.20;;;;;;4996686;28;20018;-80
2021/08/25 06:55:47;;;;;;;10.00;7.95;;;13.50;93.60;;;;;;5028357;28;20139;-79
2021/08/25 06:58:19;;;;;;;8.48;7.57;;;13.70;94.10;;;;;;5009616;28;20029;-78
2021/08/25 07:00:44;;;;;;;11.18;7.90;;;13.70;94.30;;;;;;5013405;28;20080;-79
2021/08/25 07:03:10;;;;;;;11.32;7.57;;;13.80;94.50;;;;;;5047461;28;20477;-78
2021/08/25 07:05:35;;;;;;;8.38;7.53;;;13.90;94.80;;;;;;5016159;28;20029;-78
2021/08/25 07:08:01;;;;;;;11.00;6.78;;;13.90;94.90;;;;;;5012393;28;20030;-78
2021/08/25 07:10:26;;;;;;;11.75;6.40;;;14.00;95.20;;;;;;4998065;28;20037;-78
2021/08/25 07:12:52;;;;;;;9.02;5.55;;;14.10;95.70;;;;;;4998035;28;20330;-79
2021/08/25 07:15:18;;;;;;;8.82;5.00;;;14.30;95.40;;;;;;4994992;28;20443;-78
2021/08/25 07:17:44;;;;;;;15.27;5.97;;;14.50;94.90;;;;;;4995632;28;20435;-78
2021/08/25 07:20:11;;;;;;;8.15;5.22;;;14.60;94.60;;;;;;5047231;28;20053;-79
2021/08/25 07:22:36;;;;;;;5.32;3.10;;;14.70;95.20;;;;;;4995199;28;20037;-79
2021/08/25 07:25:02;;;;;;;10.20;4.90;;;14.90;93.20;;;;;;5046897;28;20044;-78
2021/08/25 07:27:28;;;;;;;10.73;4.88;;;15.00;94.40;;;;;;5015799;28;20035;-78
2021/08/25 07:29:54;;;;;;;8.05;4.43;;;15.10;95.30;;;;;;5043304;28;20034;-78
2021/08/25 07:32:21;;;;;;;6.30;2.92;;;15.20;94.70;;;;;;5014380;28;20049;-79
2021/08/25 07:34:46;;;;;;;9.10;4.53;;;15.40;92.60;;;;;;4995258;28;20031;-79
2021/08/25 07:37:12;;;;;;;8.32;4.60;;;15.70;92.80;;;;;;5028361;28;20029;-78
2021/08/25 07:39:38;;;;;;;6.20;3.80;;;15.90;92.30;;;;;;5011858;28;20035;-78
2021/08/25 07:42:03;;;;;;;9.48;5.35;;;16.00;92.20;;;;;;4986912;28;20025;-78
2021/08/25 07:44:29;;;;;;;9.75;5.05;;;16.00;94.50;;;;;;5010474;28;20034;-77
2021/08/25 07:46:55;;;;;;;9.57;4.70;;;16.10;94.80;;;;;;5001906;28;20124;-80
2021/08/25 07:49:21;;;;;;;8.57;4.40;;;16.20;93.40;;;;;;4992087;28;20570;-79
2021/08/25 07:51:47;;;;;;;4.95;3.55;;;16.40;92.50;;;;;;5028606;28;20539;-78
2021/08/25 07:54:13;;;;;;;7.38;3.83;;;16.60;92.60;;;;;;5026566;28;20357;-79
2021/08/25 07:56:38;;;;;;;5.68;3.33;;;16.70;94.10;;;;;;5014881;28;20036;-79
2021/08/25 07:59:04;;;;;;;5.03;3.30;;;16.90;91.70;;;;;;4996655;28;20365;-79
2021/08/25 08:01:30;;;;;;;4.43;3.97;;;17.00;91.50;;;;;;5023205;28;20025;-79
2021/08/25 08:03:55;;;;;;;4.28;3.00;;;17.10;91.70;;;;;;5023923;28;20068;-79
2021/08/25 08:06:21;;;;;;;4.95;3.45;;;17.30;92.30;;;;;;5042226;28;20037;-79
2021/08/25 08:08:47;;;;;;;6.32;3.63;;;17.90;92.00;;;;;;5041886;28;20515;-79
2021/08/25 08:11:13;;;;;;;5.43;3.10;;;17.90;90.50;;;;;;5024831;28;20056;-79
2021/08/25 08:13:39;;;;;;;5.55;3.10;;;18.00;91.50;;;;;;5027849;28;20225;-78
2021/08/25 08:16:05;;;;;;;6.82;3.78;;;18.20;91.20;;;;;;5042793;28;20384;-79
2021/08/25 08:18:34;;;;;;;6.20;3.22;;;18.30;91.00;;;;;;5014635;28;20029;-78
2021/08/25 08:20:59;;;;;;;5.53;3.42;;;18.60;90.90;;;;;;5010695;28;20037;-79
2021/08/25 08:23:25;;;;;;;11.77;4.95;;;18.60;90.90;;;;;;5014101;28;20056;-80
2021/08/25 08:25:51;;;;;;;7.32;4.13;;;18.60;92.20;;;;;;4994615;28;20059;-80
2021/08/25 08:28:16;;;;;;;8.73;4.22;;;18.60;93.50;;;;;;4996728;28;20029;-80
2021/08/25 08:30:42;;;;;;;6.25;3.22;;;18.70;93.10;;;;;;5029235;28;20044;-79
2021/08/25 08:33:07;;;;;;;5.95;3.35;;;18.70;91.10;;;;;;5009939;28;20083;-79
2021/08/25 08:35:36;;;;;;;8.35;4.50;;;18.80;91.40;;;;;;5029591;28;20329;-80
2021/08/25 08:38:04;;;;;;;7.45;4.57;;;19.00;92.40;;;;;;5029887;28;20031;-80
2021/08/25 08:40:34;;;;;;;10.80;5.05;;;19.10;92.30;;;;;;4996812;28;20083;-80
2021/08/25 08:43:06;;;;;;;10.15;4.53;;;19.40;93.60;;;;;;5009525;28;20030;-80
2021/08/25 08:45:42;;;;;;;7.85;4.90;;;19.50;93.20;;;;;;4993045;28;20037;-80
2021/08/25 08:48:09;;;;;;;8.75;4.43;;;19.70;93.40;;;;;;5012303;28;20038;-79
2021/08/25 08:50:35;;;;;;;13.27;5.53;;;19.90;92.10;;;;;;5027851;28;20124;-79
2021/08/25 08:53:01;;;;;;;10.50;5.55;;;20.10;92.60;;;;;;4993223;28;20140;-80
2021/08/25 08:55:27;;;;;;;8.68;4.78;;;20.30;92.20;;;;;;4995979;28;20099;-82
2021/08/25 08:57:52;;;;;;;9.18;4.53;;;20.40;92.50;;;;;;5009006;28;20064;-81
2021/08/25 09:00:18;;;;;;;6.30;4.25;;;20.40;91.40;;;;;;4991685;28;20036;-81
2021/08/25 09:02:45;;;;;;;11.15;5.10;;;20.60;91.00;;;;;;5025892;28;20464;-81
2021/08/25 09:05:24;;;;;;;9.73;4.88;;;20.70;90.30;;;;;;5009013;28;20027;-80
2021/08/25 09:07:58;;;;;;;10.45;5.47;;;20.80;90.50;;;;;;5031341;28;20030;-81
2021/08/25 09:10:24;;;;;;;10.15;5.03;;;20.90;92.00;;;;;;5026254;28;20051;-81
2021/08/25 09:12:51;;;;;;;10.93;4.53;;;21.00;91.50;;;;;;5002505;28;20032;-80
2021/08/25 09:15:24;;;;;;;7.47;4.47;;;21.00;92.00;;;;;;5011453;28;20501;-81
2021/08/25 09:18:03;;;;;;;7.13;3.88;;;21.20;91.60;;;;;;5005999;28;20037;-81
2021/08/25 09:20:30;;;;;;;9.93;4.10;;;21.30;90.40;;;;;;5022060;28;20056;-80
2021/08/25 09:23:10;;;;;;;6.13;3.40;;;21.40;91.90;;;;;;4992034;28;20684;-82
2021/08/25 09:25:35;;;;;;;7.50;3.50;;;21.60;91.00;;;;;;5004540;28;20532;-82
2021/08/25 09:28:02;;;;;;;7.32;3.78;;;21.80;91.20;;;;;;5043472;28;20052;-79
2021/08/25 09:30:53;;;;;;;7.97;3.95;;;21.90;91.00;;;;;;5042981;28;20048;-82
2021/08/25 09:33:19;;;;;;;7.80;4.40;;;21.80;90.70;;;;;;5037939;28;20114;-82
2021/08/25 09:35:45;;;;;;;9.20;4.43;;;21.90;90.00;;;;;;4992592;28;20040;-82
2021/08/25 09:38:17;;;;;;;7.97;4.05;;;21.90;90.00;;;;;;4995691;28;20033;-83
2021/08/25 09:40:47;;;;;;;14.35;5.18;;;21.90;90.40;;;;;;5007476;28;20544;-82
2021/08/25 09:43:14;;;;;;;6.43;3.60;;;22.00;90.10;;;;;;4991667;28;20032;-83
2021/08/25 09:45:40;;;;;;;5.43;3.42;;;22.10;88.10;;;;;;5009762;28;20112;-84
2021/08/25 09:48:05;;;;;;;7.88;4.22;;;22.20;87.50;;;;;;4995910;28;20104;-83
2021/08/25 09:50:31;;;;;;;6.30;3.88;;;22.20;84.00;;;;;;5040013;28;20048;-83
2021/08/25 09:52:57;;;;;;;6.20;3.60;;;22.20;85.00;;;;;;5044450;28;20029;-84
2021/08/25 09:55:36;;;;;;;6.03;3.58;;;22.30;84.20;;;;;;5024734;28;20033;-83
2021/08/25 09:58:01;;;;;;;9.95;4.13;;;22.30;85.00;;;;;;5005288;28;20215;-83
2021/08/25 10:00:27;;;;;;;5.68;3.60;;;22.40;80.40;;;;;;5002433;28;20112;-84
2021/08/25 10:02:53;;;;;;;8.32;3.65;;;22.50;85.20;;;;;;4996123;28;20426;-83
2021/08/25 10:05:28;;;;;;;6.22;4.07;;;22.60;84.80;;;;;;5014086;28;20037;-84
2021/08/25 10:07:54;;;;;;;8.57;4.00;;;22.80;85.30;;;;;;5007871;28;20590;-85
2021/08/25 10:10:22;;;;;;;9.63;3.42;;;23.20;82.90;;;;;;5015091;28;20037;-86
2021/08/25 10:12:51;;;;;;;8.13;4.10;;;23.20;83.90;;;;;;5009841;28;20303;-86
2021/08/25 10:15:33;;;;;;;8.45;4.18;;;23.10;82.70;;;;;;5048173;28;20120;-86
2021/08/25 10:18:21;;;;;;;7.60;3.42;;;23.10;83.30;;;;;;5039460;28;20069;-86
2021/08/25 10:20:46;;;;;;;7.07;3.72;;;23.10;82.60;;;;;;5039613;28;20445;-86
2021/08/25 10:23:12;;;;;;;9.50;3.58;;;23.30;84.10;;;;;;5000625;28;20041;-87
2021/08/25 10:26:08;;;;;;;5.93;3.55;;;23.70;81.90;;;;;;5017645;28;20029;-87
2021/08/25 10:28:58;;;;;;;5.13;3.42;;;23.70;79.60;;;;;;5002180;28;20029;-87
2021/08/25 10:31:45;;;;;;;9.70;3.40;;;23.70;84.20;;;;;;5028778;28;20130;-87
2021/08/25 10:34:21;;;;;;;6.95;3.42;;;23.80;84.50;;;;;;5009658;28;20029;-86
2021/08/25 10:36:50;;;;;;;4.78;3.05;;;23.90;82.90;;;;;;5003818;28;20029;-87
2021/08/25 10:47:03;;;;;;;;;;;;;;;;;;;;;
2021/08/25 10:50:11;;;;;;;6.82;4.03;;;25.90;77.90;;;;;;4943655;28;20806;-86
2021/08/25 10:52:54;;;;;;;7.72;4.07;;;24.90;74.70;;;;;;4982986;28;20034;-85
2021/08/25 10:55:20;;;;;;;6.38;4.10;;;24.80;77.20;;;;;;4960466;28;20065;-85
2021/08/25 10:57:46;;;;;;;6.82;4.45;;;24.70;74.70;;;;;;5009186;28;20088;-85
2021/08/25 11:00:12;;;;;;;7.93;3.67;;;24.70;74.00;;;;;;5052441;28;20041;-85
2021/08/25 11:02:41;;;;;;;6.65;3.40;;;24.70;76.00;;;;;;5026400;28;20037;-84
2021/08/25 11:05:07;;;;;;;4.38;3.38;;;25.30;75.50;;;;;;5056651;28;20404;-84
2021/08/25 11:07:41;;;;;;;6.50;3.40;;;26.00;74.00;;;;;;4302997;28;10000381;-84
2021/08/25 11:10:07;;;;;;;5.18;3.42;;;25.90;75.40;;;;;;5025561;28;20132;-84
2021/08/25 11:12:33;;;;;;;5.13;3.28;;;26.30;75.00;;;;;;4996278;28;20153;-84
2021/08/25 11:14:58;;;;;;;4.97;3.15;;;25.90;76.70;;;;;;5034867;28;20423;-84
2021/08/25 11:17:28;;;;;;;5.95;2.95;;;25.90;76.30;;;;;;4983125;28;20492;-83
2021/08/25 11:20:03;;;;;;;11.70;4.10;;;27.50;69.40;;;;;;4985603;28;20037;-83
2021/08/25 11:22:32;;;;;;;8.93;3.42;;;27.60;71.10;;;;;;5016723;28;20048;-83
2021/08/25 11:25:16;;;;;;;7.72;4.32;;;27.20;70.60;;;;;;5035033;28;20119;-82
2021/08/25 11:27:49;;;;;;;8.82;5.38;;;26.70;68.90;;;;;;5001338;28;20036;-82
2021/08/25 11:30:18;;;;;;;8.02;4.47;;;26.20;71.10;;;;;;5022641;28;20460;-82
2021/08/25 11:32:44;;;;;;;6.53;4.10;;;26.10;71.10;;;;;;5035721;28;20505;-83
2021/08/25 11:35:10;;;;;;;5.90;3.42;;;26.00;72.20;;;;;;5056291;28;20452;-82
2021/08/25 11:37:36;;;;;;;6.50;3.92;;;26.10;72.80;;;;;;4992804;28;20166;-82
2021/08/25 11:40:04;;;;;;;6.97;3.88;;;26.10;71.60;;;;;;5025056;28;20067;-82
2021/08/25 11:42:33;;;;;;;9.88;4.57;;;26.30;71.20;;;;;;4991253;28;20037;-81
2021/08/25 11:44:59;;;;;;;7.63;4.72;;;26.20;67.80;;;;;;5037982;28;20151;-81
2021/08/25 11:47:25;;;;;;;8.38;3.78;;;26.30;64.10;;;;;;5008235;28;20281;-81
2021/08/25 11:49:53;;;;;;;6.78;4.20;;;26.30;70.00;;;;;;4988511;28;20040;-82
2021/08/25 11:52:19;;;;;;;9.88;4.50;;;26.20;69.50;;;;;;4989190;28;20037;-81
2021/08/25 11:54:44;;;;;;;7.43;3.83;;;26.50;64.40;;;;;;5025415;28;20036;-81
2021/08/25 11:57:12;;;;;;;6.57;3.80;;;26.30;67.50;;;;;;5039969;28;20090;-81
2021/08/25 11:59:58;;;;;;;7.85;3.90;;;26.40;70.10;;;;;;5004681;28;20033;-81
2021/08/25 12:02:23;;;;;;;8.27;4.55;;;27.20;70.00;;;;;;5023768;28;20204;-81
2021/08/25 12:04:49;;;;;;;8.43;4.65;;;27.10;69.50;;;;;;5009105;28;20112;-81
2021/08/25 12:07:14;;;;;;;7.72;5.00;;;27.00;66.80;;;;;;5027428;28;20041;-81
2021/08/25 12:09:41;;;;;;;12.27;5.35;;;26.90;66.40;;;;;;5006046;28;20059;-81
2021/08/25 12:12:07;;;;;;;6.68;4.78;;;26.90;66.00;;;;;;5040259;28;20183;-81
2021/08/25 12:14:52;;;;;;;7.57;4.63;;;26.90;68.30;;;;;;5012396;28;20556;-81
2021/08/25 12:17:17;;;;;;;6.15;4.22;;;27.00;67.20;;;;;;5038655;28;20029;-81
2021/08/25 12:20:00;;;;;;;11.60;4.28;;;27.00;67.10;;;;;;5032895;28;20361;-81
2021/08/25 12:22:29;;;;;;;8.77;5.03;;;27.00;66.20;;;;;;5028097;28;20117;-81
2021/08/25 12:24:55;;;;;;;8.85;4.65;;;27.10;63.10;;;;;;5025962;28;20029;-81
2021/08/25 12:27:22;;;;;;;7.57;4.22;;;26.90;63.80;;;;;;5009006;28;20041;-81
2021/08/25 12:29:47;;;;;;;8.40;4.43;;;26.90;59.90;;;;;;4992405;28;20574;-81
2021/08/25 12:32:13;;;;;;;10.75;4.90;;;26.80;62.80;;;;;;5038323;28;20119;-81
2021/08/25 12:34:55;;;;;;;7.82;4.43;;;26.90;63.40;;;;;;5042025;28;20033;-81
2021/08/25 12:37:20;;;;;;;7.78;4.85;;;27.00;64.60;;;;;;5024843;28;20029;-81
2021/08/25 12:39:46;;;;;;;7.43;4.65;;;27.10;64.80;;;;;;4993320;28;20476;-81
2021/08/25 12:42:11;;;;;;;6.40;3.78;;;27.10;65.00;;;;;;5042635;28;20043;-80
2021/08/25 12:44:37;;;;;;;14.50;5.25;;;27.20;66.00;;;;;;5003297;28;20056;-81
2021/08/25 12:47:04;;;;;;;6.03;3.45;;;27.20;63.60;;;;;;5033274;28;20052;-81
2021/08/25 12:49:30;;;;;;;8.27;4.38;;;27.50;66.00;;;;;;5010056;28;20041;-81
2021/08/25 12:51:56;;;;;;;6.93;4.18;;;27.70;62.20;;;;;;5007678;28;20025;-80
2021/08/25 12:54:22;;;;;;;7.50;3.97;;;27.80;59.30;;;;;;5024588;28;20519;-80
2021/08/25 12:56:48;;;;;;;10.73;4.43;;;28.40;62.80;;;;;;5023207;28;20033;-80